Terminal Aerodrome Forecast
Issued by NWS

Home | Current Version | Previous Version | Text Only | Print | Product List | Glossary On
Versions: 1 2 3 4 5 6 7 8 9 10 11 12 13 14 15 16 17 18 19 20 21 22 23 24 25 26 27 28
000
FTUS43 KSGF 210500
TAFBBG
TAF
KBBG 210520Z 2106/2206 24006KT P6SM SCT050 BKN250
     FM211200 VRB05KT P6SM VCTS SCT050CB BKN250
     FM211700 33010KT P6SM SCT250=

USA.gov is the U.S. government's official web portal to all federal, state and local government web resources and services.